Terminal Aerodrome Forecast
Issued by NWS Charleston, WV

Current Version | Previous Version | Text Only | Print | Product List | Glossary Off
Versions: 1 2 3 4 5 6 7 8 9 10 11 12 13 14 15 16 17 18 19 20 21 22 23 24 25 26 27

000
FTUS41 KRLX 292135 AAA
TAFCRW
TAF AMD
KCRW 292135Z 2922/3018 33004KT P6SM -RA VCTS SCT009 BKN035CB BKN090
      TEMPO 2922/2924 3SM SHRA BKN010
     FM300300 28004KT 5SM -SHRA OVC015
     FM300700 VRB03KT 3SM -SHRA BR OVC010=

USA.gov is the U.S. government's official web portal to all federal, state and local government web resources and services.